sensor_id;sensor_type;location;lat;lon;timestamp;pressure;altitude;pressure_sealevel;temperature;humidity
42587;BME280;28216;53.362;-6.288;2023-05-07T00:00:33;101079.50;;;14.54;100.00
42587;BME280;28216;53.362;-6.288;2023-05-07T00:02:59;101075.22;;;14.53;100.00
42587;BME280;28216;53.362;-6.288;2023-05-07T00:05:25;101083.97;;;14.54;100.00
42587;BME280;28216;53.362;-6.288;2023-05-07T00:07:50;101093.53;;;14.55;100.00
42587;BME280;28216;53.362;-6.288;2023-05-07T00:10:17;101085.69;;;14.47;100.00
42587;BME280;28216;53.362;-6.288;2023-05-07T00:12:43;101093.59;;;14.47;100.00
42587;BME280;28216;53.362;-6.288;2023-05-07T00:15:08;101088.13;;;14.48;100.00
42587;BME280;28216;53.362;-6.288;2023-05-07T00:17:34;101088.50;;;14.45;100.00
42587;BME280;28216;53.362;-6.288;2023-05-07T00:19:59;101086.53;;;14.39;100.00
42587;BME280;28216;53.362;-6.288;2023-05-07T00:22:25;101085.41;;;14.34;100.00
42587;BME280;28216;53.362;-6.288;2023-05-07T00:24:50;101087.88;;;14.35;100.00
42587;BME280;28216;53.362;-6.288;2023-05-07T00:27:16;101094.31;;;14.32;100.00
42587;BME280;28216;53.362;-6.288;2023-05-07T00:29:41;101095.84;;;14.27;100.00
42587;BME280;28216;53.362;-6.288;2023-05-07T00:32:07;101102.94;;;14.26;100.00
42587;BME280;28216;53.362;-6.288;2023-05-07T00:34:33;101095.38;;;14.23;100.00
42587;BME280;28216;53.362;-6.288;2023-05-07T00:36:58;101097.88;;;14.17;100.00
42587;BME280;28216;53.362;-6.288;2023-05-07T00:39:24;101098.41;;;14.12;100.00
42587;BME280;28216;53.362;-6.288;2023-05-07T00:41:49;101095.28;;;14.09;100.00
42587;BME280;28216;53.362;-6.288;2023-05-07T00:44:16;101097.56;;;14.12;100.00
42587;BME280;28216;53.362;-6.288;2023-05-07T00:46:43;101096.41;;;14.14;100.00
42587;BME280;28216;53.362;-6.288;2023-05-07T00:49:10;101104.16;;;14.16;100.00
42587;BME280;28216;53.362;-6.288;2023-05-07T00:51:36;101097.53;;;14.20;100.00
42587;BME280;28216;53.362;-6.288;2023-05-07T00:54:02;101100.66;;;14.23;100.00
42587;BME280;28216;53.362;-6.288;2023-05-07T00:56:28;101104.16;;;14.16;100.00
42587;BME280;28216;53.362;-6.288;2023-05-07T00:58:54;101103.69;;;14.12;100.00
42587;BME280;28216;53.362;-6.288;2023-05-07T01:01:20;101104.28;;;14.22;100.00
42587;BME280;28216;53.362;-6.288;2023-05-07T01:03:45;101102.75;;;14.28;100.00
42587;BME280;28216;53.362;-6.288;2023-05-07T01:06:12;101099.66;;;14.24;100.00
42587;BME280;28216;53.362;-6.288;2023-05-07T01:08:39;101102.94;;;14.26;100.00
42587;BME280;28216;53.362;-6.288;2023-05-07T01:11:06;101104.94;;;14.24;100.00
42587;BME280;28216;53.362;-6.288;2023-05-07T01:13:34;101102.59;;;14.29;100.00
42587;BME280;28216;53.362;-6.288;2023-05-07T01:16:00;101096.97;;;14.32;100.00
42587;BME280;28216;53.362;-6.288;2023-05-07T01:18:25;101105.34;;;14.36;100.00
42587;BME280;28216;53.362;-6.288;2023-05-07T01:20:52;101101.88;;;14.36;100.00
42587;BME280;28216;53.362;-6.288;2023-05-07T01:23:18;101103.34;;;14.38;100.00
42587;BME280;28216;53.362;-6.288;2023-05-07T01:25:51;101110.28;;;14.39;100.00
42587;BME280;28216;53.362;-6.288;2023-05-07T01:28:17;101112.59;;;14.42;100.00
42587;BME280;28216;53.362;-6.288;2023-05-07T01:30:46;101118.69;;;14.43;100.00
42587;BME280;28216;53.362;-6.288;2023-05-07T01:33:13;101121.47;;;14.41;100.00
42587;BME280;28216;53.362;-6.288;2023-05-07T01:35:45;101115.22;;;14.42;100.00
42587;BME280;28216;53.362;-6.288;2023-05-07T01:38:12;101111.09;;;14.40;100.00
42587;BME280;28216;53.362;-6.288;2023-05-07T01:40:38;101110.09;;;14.41;100.00
42587;BME280;28216;53.362;-6.288;2023-05-07T01:43:04;101120.97;;;14.46;100.00
42587;BME280;28216;53.362;-6.288;2023-05-07T01:45:31;101115.69;;;14.46;100.00
42587;BME280;28216;53.362;-6.288;2023-05-07T01:48:02;101119.97;;;14.47;100.00
42587;BME280;28216;53.362;-6.288;2023-05-07T01:50:28;101116.69;;;14.45;100.00
42587;BME280;28216;53.362;-6.288;2023-05-07T01:52:55;101112.59;;;14.42;100.00
42587;BME280;28216;53.362;-6.288;2023-05-07T01:55:20;101123.78;;;14.44;100.00
42587;BME280;28216;53.362;-6.288;2023-05-07T01:57:45;101120.66;;;14.41;100.00
42587;BME280;28216;53.362;-6.288;2023-05-07T02:00:11;101122.47;;;14.40;100.00
42587;BME280;28216;53.362;-6.288;2023-05-07T02:02:37;101122.47;;;14.40;100.00
42587;BME280;28216;53.362;-6.288;2023-05-07T02:05:04;101124.09;;;14.41;100.00
42587;BME280;28216;53.362;-6.288;2023-05-07T02:07:29;101122.63;;;14.39;100.00
42587;BME280;28216;53.362;-6.288;2023-05-07T02:09:55;101131.06;;;14.34;100.00
42587;BME280;28216;53.362;-6.288;2023-05-07T02:12:21;101132.72;;;14.35;100.00
42587;BME280;28216;53.362;-6.288;2023-05-07T02:14:46;101135.53;;;14.34;100.00
42587;BME280;28216;53.362;-6.288;2023-05-07T02:17:12;101128.63;;;14.32;100.00
42587;BME280;28216;53.362;-6.288;2023-05-07T02:19:37;101134.72;;;14.33;100.00
42587;BME280;28216;53.362;-6.288;2023-05-07T02:22:03;101137.69;;;14.30;100.00
42587;BME280;28216;53.362;-6.288;2023-05-07T02:24:28;101138.88;;;14.27;100.00
42587;BME280;28216;53.362;-6.288;2023-05-07T02:26:54;101134.59;;;14.26;100.00
42587;BME280;28216;53.362;-6.288;2023-05-07T02:29:19;101139.84;;;14.26;100.00
42587;BME280;28216;53.362;-6.288;2023-05-07T02:31:44;101135.22;;;14.28;100.00
42587;BME280;28216;53.362;-6.288;2023-05-07T02:34:10;101136.06;;;14.29;100.00
42587;BME280;28216;53.362;-6.288;2023-05-07T02:36:35;101135.88;;;14.30;100.00
42587;BME280;28216;53.362;-6.288;2023-05-07T02:39:01;101142.31;;;14.28;100.00
42587;BME280;28216;53.362;-6.288;2023-05-07T02:41:27;101134.75;;;14.25;100.00
42587;BME280;28216;53.362;-6.288;2023-05-07T02:43:53;101128.00;;;14.22;100.00
42587;BME280;28216;53.362;-6.288;2023-05-07T02:46:19;101125.72;;;14.19;100.00
42587;BME280;28216;53.362;-6.288;2023-05-07T02:48:44;101124.09;;;14.18;100.00
42587;BME280;28216;53.362;-6.288;2023-05-07T02:51:10;101127.88;;;14.16;100.00
42587;BME280;28216;53.362;-6.288;2023-05-07T02:53:35;101125.59;;;14.13;100.00
42587;BME280;28216;53.362;-6.288;2023-05-07T02:56:01;101132.19;;;14.09;100.00
42587;BME280;28216;53.362;-6.288;2023-05-07T02:58:27;101129.91;;;14.06;100.00
42587;BME280;28216;53.362;-6.288;2023-05-07T03:00:53;101132.41;;;13.99;100.00
42587;BME280;28216;53.362;-6.288;2023-05-07T03:03:20;101133.72;;;13.95;100.00
42587;BME280;28216;53.362;-6.288;2023-05-07T03:05:45;101129.16;;;13.89;100.00
42587;BME280;28216;53.362;-6.288;2023-05-07T03:08:11;101125.03;;;13.86;100.00
42587;BME280;28216;53.362;-6.288;2023-05-07T03:10:37;101125.56;;;13.82;100.00
42587;BME280;28216;53.362;-6.288;2023-05-07T03:13:03;101138.25;;;13.78;100.00
42587;BME280;28216;53.362;-6.288;2023-05-07T03:15:29;101142.72;;;13.78;100.00
42587;BME280;28216;53.362;-6.288;2023-05-07T03:17:55;101140.41;;;13.75;100.00
42587;BME280;28216;53.362;-6.288;2023-05-07T03:20:20;101148.16;;;13.76;100.00
42587;BME280;28216;53.362;-6.288;2023-05-07T03:22:46;101155.06;;;13.77;100.00
42587;BME280;28216;53.362;-6.288;2023-05-07T03:25:12;101149.78;;;13.77;100.00
42587;BME280;28216;53.362;-6.288;2023-05-07T03:27:37;101152.44;;;13.77;100.00
42587;BME280;28216;53.362;-6.288;2023-05-07T03:30:03;101153.25;;;13.78;100.00
42587;BME280;28216;53.362;-6.288;2023-05-07T03:32:29;101150.63;;;13.78;100.00
42587;BME280;28216;53.362;-6.288;2023-05-07T03:34:54;101157.03;;;13.75;100.00
42587;BME280;28216;53.362;-6.288;2023-05-07T03:37:20;101149.31;;;13.74;100.00
42587;BME280;28216;53.362;-6.288;2023-05-07T03:39:47;101156.56;;;13.72;100.00
42587;BME280;28216;53.362;-6.288;2023-05-07T03:42:12;101162.50;;;13.74;100.00
42587;BME280;28216;53.362;-6.288;2023-05-07T03:44:37;101159.19;;;13.72;100.00
42587;BME280;28216;53.362;-6.288;2023-05-07T03:47:04;101164.47;;;13.72;100.00
42587;BME280;28216;53.362;-6.288;2023-05-07T03:49:29;101169.09;;;13.70;100.00
42587;BME280;28216;53.362;-6.288;2023-05-07T03:51:55;101169.09;;;13.70;100.00
42587;BME280;28216;53.362;-6.288;2023-05-07T03:54:21;101162.81;;;13.71;100.00
42587;BME280;28216;53.362;-6.288;2023-05-07T03:56:46;101169.75;;;13.72;100.00
42587;BME280;28216;53.362;-6.288;2023-05-07T03:59:12;101178.13;;;13.75;100.00
42587;BME280;28216;53.362;-6.288;2023-05-07T04:01:38;101169.22;;;13.76;100.00
42587;BME280;28216;53.362;-6.288;2023-05-07T04:04:03;101170.88;;;13.77;100.00
42587;BME280;28216;53.362;-6.288;2023-05-07T04:06:29;101166.75;;;13.75;100.00
42587;BME280;28216;53.362;-6.288;2023-05-07T04:08:55;101174.66;;;13.75;100.00
42587;BME280;28216;53.362;-6.288;2023-05-07T04:11:21;101162.31;;;13.75;100.00
42587;BME280;28216;53.362;-6.288;2023-05-07T04:13:46;101166.59;;;13.76;100.00
42587;BME280;28216;53.362;-6.288;2023-05-07T04:16:12;101162.97;;;13.77;100.00
42587;BME280;28216;53.362;-6.288;2023-05-07T04:18:38;101163.97;;;13.76;100.00
42587;BME280;28216;53.362;-6.288;2023-05-07T04:21:04;101168.25;;;13.77;100.00
42587;BME280;28216;53.362;-6.288;2023-05-07T04:23:29;101173.34;;;13.79;100.00
42587;BME280;28216;53.362;-6.288;2023-05-07T04:25:55;101176.16;;;13.77;100.00
42587;BME280;28216;53.362;-6.288;2023-05-07T04:28:20;101180.59;;;13.77;100.00
42587;BME280;28216;53.362;-6.288;2023-05-07T04:30:45;101183.06;;;13.78;100.00
42587;BME280;28216;53.362;-6.288;2023-05-07T04:33:11;101183.53;;;13.82;100.00
42587;BME280;28216;53.362;-6.288;2023-05-07T04:35:37;101182.72;;;13.81;100.00
42587;BME280;28216;53.362;-6.288;2023-05-07T04:38:02;101186.34;;;13.80;100.00
42587;BME280;28216;53.362;-6.288;2023-05-07T04:40:28;101181.06;;;13.80;100.00
42587;BME280;28216;53.362;-6.288;2023-05-07T04:42:53;101183.53;;;13.82;100.00
42587;BME280;28216;53.362;-6.288;2023-05-07T04:45:19;101187.16;;;13.81;100.00
42587;BME280;28216;53.362;-6.288;2023-05-07T04:47:44;101183.06;;;13.78;100.00
42587;BME280;28216;53.362;-6.288;2023-05-07T04:50:10;101182.88;;;13.80;100.00
42587;BME280;28216;53.362;-6.288;2023-05-07T04:52:36;101193.25;;;13.81;100.00
42587;BME280;28216;53.362;-6.288;2023-05-07T04:55:02;101199.53;;;13.80;100.00
42587;BME280;28216;53.362;-6.288;2023-05-07T04:57:27;101194.91;;;13.82;100.00
42587;BME280;28216;53.362;-6.288;2023-05-07T04:59:53;101195.06;;;13.81;100.00
42587;BME280;28216;53.362;-6.288;2023-05-07T05:02:19;101202.81;;;13.82;100.00
42587;BME280;28216;53.362;-6.288;2023-05-07T05:04:44;101193.44;;;13.80;100.00
42587;BME280;28216;53.362;-6.288;2023-05-07T05:07:10;101191.78;;;13.79;100.00
42587;BME280;28216;53.362;-6.288;2023-05-07T05:09:35;101192.78;;;13.78;100.00
42587;BME280;28216;53.362;-6.288;2023-05-07T05:12:01;101188.50;;;13.77;100.00
42587;BME280;28216;53.362;-6.288;2023-05-07T05:14:26;101187.50;;;13.78;100.00
42587;BME280;28216;53.362;-6.288;2023-05-07T05:16:52;101195.41;;;13.78;100.00
42587;BME280;28216;53.362;-6.288;2023-05-07T05:19:17;101193.44;;;13.80;100.00
42587;BME280;28216;53.362;-6.288;2023-05-07T05:21:43;101201.16;;;13.81;100.00
42587;BME280;28216;53.362;-6.288;2023-05-07T05:24:08;101197.53;;;13.82;100.00
42587;BME280;28216;53.362;-6.288;2023-05-07T05:26:34;101201.00;;;13.83;100.00
42587;BME280;28216;53.362;-6.288;2023-05-07T05:29:00;101204.28;;;13.85;100.00
42587;BME280;28216;53.362;-6.288;2023-05-07T05:31:25;101205.94;;;13.86;100.00
42587;BME280;28216;53.362;-6.288;2023-05-07T05:33:51;101213.84;;;13.86;100.00
42587;BME280;28216;53.362;-6.288;2023-05-07T05:36:16;101208.22;;;13.89;100.00
42587;BME280;28216;53.362;-6.288;2023-05-07T05:38:42;101208.38;;;13.95;100.00
42587;BME280;28216;53.362;-6.288;2023-05-07T05:41:10;101207.03;;;13.99;100.00
42587;BME280;28216;53.362;-6.288;2023-05-07T05:43:36;101206.34;;;14.06;100.00
42587;BME280;28216;53.362;-6.288;2023-05-07T05:46:01;101207.34;;;14.13;100.00
42587;BME280;28216;53.362;-6.288;2023-05-07T05:48:28;101205.66;;;14.20;100.00
42587;BME280;28216;53.362;-6.288;2023-05-07T05:50:54;101209.94;;;14.21;100.00
42587;BME280;28216;53.362;-6.288;2023-05-07T05:53:19;101210.59;;;14.23;100.00
42587;BME280;28216;53.362;-6.288;2023-05-07T05:55:45;101207.97;;;14.23;100.00
42587;BME280;28216;53.362;-6.288;2023-05-07T05:58:11;101206.97;;;14.24;100.00
42587;BME280;28216;53.362;-6.288;2023-05-07T06:00:36;101209.13;;;14.20;100.00
42587;BME280;28216;53.362;-6.288;2023-05-07T06:03:02;101207.13;;;14.22;100.00
42587;BME280;28216;53.362;-6.288;2023-05-07T06:05:27;101210.13;;;14.19;100.00
42587;BME280;28216;53.362;-6.288;2023-05-07T06:07:53;101215.03;;;14.22;100.00
42587;BME280;28216;53.362;-6.288;2023-05-07T06:10:18;101209.59;;;14.24;100.00
42587;BME280;28216;53.362;-6.288;2023-05-07T06:12:44;101210.25;;;14.26;100.00
42587;BME280;28216;53.362;-6.288;2023-05-07T06:15:10;101227.72;;;14.27;100.00
42587;BME280;28216;53.362;-6.288;2023-05-07T06:17:35;101223.56;;;14.32;100.00
42587;BME280;28216;53.362;-6.288;2023-05-07T06:20:01;101228.66;;;14.42;100.00
42587;BME280;28216;53.362;-6.288;2023-05-07T06:22:26;101218.72;;;14.52;100.00
42587;BME280;28216;53.362;-6.288;2023-05-07T06:24:51;101225.06;;;14.66;100.00
42587;BME280;28216;53.362;-6.288;2023-05-07T06:27:17;101217.47;;;14.94;100.00
42587;BME280;28216;53.362;-6.288;2023-05-07T06:29:42;101229.19;;;15.14;100.00
42587;BME280;28216;53.362;-6.288;2023-05-07T06:32:12;101235.28;;;15.38;100.00
42587;BME280;28216;53.362;-6.288;2023-05-07T06:34:39;101243.78;;;15.48;100.00
42587;BME280;28216;53.362;-6.288;2023-05-07T06:37:05;101239.56;;;15.62;100.00
42587;BME280;28216;53.362;-6.288;2023-05-07T06:39:31;101245.50;;;15.78;100.00
42587;BME280;28216;53.362;-6.288;2023-05-07T06:41:57;101240.84;;;16.25;100.00
42587;BME280;28216;53.362;-6.288;2023-05-07T06:44:22;101249.94;;;16.51;100.00
42587;BME280;28216;53.362;-6.288;2023-05-07T06:46:48;101255.38;;;16.65;100.00
42587;BME280;28216;53.362;-6.288;2023-05-07T06:49:13;101251.47;;;16.75;100.00
42587;BME280;28216;53.362;-6.288;2023-05-07T06:51:39;101248.81;;;16.75;100.00
42587;BME280;28216;53.362;-6.288;2023-05-07T06:54:04;101258.22;;;16.78;100.00
42587;BME280;28216;53.362;-6.288;2023-05-07T06:56:31;101260.84;;;16.78;100.00
42587;BME280;28216;53.362;-6.288;2023-05-07T06:58:56;101267.50;;;16.89;100.00
42587;BME280;28216;53.362;-6.288;2023-05-07T07:01:22;101262.84;;;17.12;100.00
42587;BME280;28216;53.362;-6.288;2023-05-07T07:03:47;101260.09;;;17.69;100.00
42587;BME280;28216;53.362;-6.288;2023-05-07T07:06:13;101265.09;;;18.20;100.00
42587;BME280;28216;53.362;-6.288;2023-05-07T07:08:39;101265.94;;;18.27;100.00
42587;BME280;28216;53.362;-6.288;2023-05-07T07:11:05;101276.00;;;18.38;100.00
42587;BME280;28216;53.362;-6.288;2023-05-07T07:13:31;101279.44;;;18.67;100.00
42587;BME280;28216;53.362;-6.288;2023-05-07T07:15:56;101284.31;;;18.63;100.00
42587;BME280;28216;53.362;-6.288;2023-05-07T07:18:22;101283.31;;;18.64;100.00
42587;BME280;28216;53.362;-6.288;2023-05-07T07:20:47;101279.00;;;18.22;100.00
42587;BME280;28216;53.362;-6.288;2023-05-07T07:23:13;101282.59;;;18.08;100.00
42587;BME280;28216;53.362;-6.288;2023-05-07T07:25:39;101273.78;;;17.73;100.00
42587;BME280;28216;53.362;-6.288;2023-05-07T07:28:05;101278.38;;;17.64;100.00
42587;BME280;28216;53.362;-6.288;2023-05-07T07:30:30;101271.38;;;17.57;100.00
42587;BME280;28216;53.362;-6.288;2023-05-07T07:32:56;101285.06;;;18.09;100.00
42587;BME280;28216;53.362;-6.288;2023-05-07T07:35:27;101279.53;;;18.52;100.00
42587;BME280;28216;53.362;-6.288;2023-05-07T07:37:53;101282.75;;;18.89;100.00
42587;BME280;28216;53.362;-6.288;2023-05-07T07:40:18;101277.22;;;18.84;100.00
42587;BME280;28216;53.362;-6.288;2023-05-07T07:42:44;101278.22;;;18.69;100.00
42587;BME280;28216;53.362;-6.288;2023-05-07T07:45:10;101275.97;;;18.66;100.00
42587;BME280;28216;53.362;-6.288;2023-05-07T07:47:35;101277.44;;;18.82;100.00
42587;BME280;28216;53.362;-6.288;2023-05-07T07:50:01;101280.78;;;18.56;100.00
42587;BME280;28216;53.362;-6.288;2023-05-07T07:52:26;101279.59;;;18.59;100.00
42587;BME280;28216;53.362;-6.288;2023-05-07T07:54:52;101280.53;;;18.51;100.00
42587;BME280;28216;53.362;-6.288;2023-05-07T07:57:17;101282.09;;;18.32;100.00
42587;BME280;28216;53.362;-6.288;2023-05-07T07:59:43;101277.19;;;18.29;100.00
42587;BME280;28216;53.362;-6.288;2023-05-07T08:02:08;101287.94;;;18.15;100.00
42587;BME280;28216;53.362;-6.288;2023-05-07T08:04:34;101286.22;;;18.00;100.00
42587;BME280;28216;53.362;-6.288;2023-05-07T08:07:00;101291.09;;;18.31;100.00
42587;BME280;28216;53.362;-6.288;2023-05-07T08:09:26;101278.53;;;18.12;100.00
42587;BME280;28216;53.362;-6.288;2023-05-07T08:11:51;101276.28;;;18.57;100.00
42587;BME280;28216;53.362;-6.288;2023-05-07T08:14:17;101284.22;;;18.98;100.00
42587;BME280;28216;53.362;-6.288;2023-05-07T08:16:42;101269.34;;;19.50;100.00
42587;BME280;28216;53.362;-6.288;2023-05-07T08:19:08;101269.34;;;19.43;100.00
42587;BME280;28216;53.362;-6.288;2023-05-07T08:21:34;101269.16;;;19.71;100.00
42587;BME280;28216;53.362;-6.288;2023-05-07T08:23:59;101267.44;;;20.10;100.00
42587;BME280;28216;53.362;-6.288;2023-05-07T08:26:25;101274.72;;;20.47;100.00
42587;BME280;28216;53.362;-6.288;2023-05-07T08:28:50;101268.63;;;21.10;100.00
42587;BME280;28216;53.362;-6.288;2023-05-07T08:31:16;101265.50;;;21.19;100.00
42587;BME280;28216;53.362;-6.288;2023-05-07T08:33:41;101260.13;;;20.94;100.00
42587;BME280;28216;53.362;-6.288;2023-05-07T08:36:07;101264.59;;;21.32;100.00
42587;BME280;28216;53.362;-6.288;2023-05-07T08:38:32;101264.25;;;21.47;100.00
42587;BME280;28216;53.362;-6.288;2023-05-07T08:40:58;101263.88;;;21.43;100.00
42587;BME280;28216;53.362;-6.288;2023-05-07T08:43:26;101272.28;;;21.72;100.00
42587;BME280;28216;53.362;-6.288;2023-05-07T08:45:53;101273.03;;;21.79;100.00
42587;BME280;28216;53.362;-6.288;2023-05-07T08:48:22;101281.59;;;22.06;100.00
42587;BME280;28216;53.362;-6.288;2023-05-07T08:50:50;101276.47;;;22.59;100.00
42587;BME280;28216;53.362;-6.288;2023-05-07T08:53:16;101277.00;;;22.79;99.44
42587;BME280;28216;53.362;-6.288;2023-05-07T08:55:42;101279.91;;;22.78;100.00
42587;BME280;28216;53.362;-6.288;2023-05-07T08:58:08;101278.75;;;23.04;100.00
42587;BME280;28216;53.362;-6.288;2023-05-07T09:00:36;101280.31;;;23.23;100.00
42587;BME280;28216;53.362;-6.288;2023-05-07T09:03:01;101280.53;;;23.22;100.00
42587;BME280;28216;53.362;-6.288;2023-05-07T09:05:27;101278.94;;;22.91;100.00
42587;BME280;28216;53.362;-6.288;2023-05-07T09:07:52;101281.84;;;22.71;100.00
42587;BME280;28216;53.362;-6.288;2023-05-07T09:10:18;101281.53;;;22.79;96.09
42587;BME280;28216;53.362;-6.288;2023-05-07T09:12:43;101283.03;;;22.45;98.55
42587;BME280;28216;53.362;-6.288;2023-05-07T09:15:11;101284.44;;;22.47;100.00
42587;BME280;28216;53.362;-6.288;2023-05-07T09:17:37;101288.38;;;22.45;100.00
42587;BME280;28216;53.362;-6.288;2023-05-07T09:20:04;101287.47;;;22.33;100.00
42587;BME280;28216;53.362;-6.288;2023-05-07T09:22:35;101284.56;;;22.16;100.00
42587;BME280;28216;53.362;-6.288;2023-05-07T09:25:01;101280.53;;;21.88;100.00
42587;BME280;28216;53.362;-6.288;2023-05-07T09:27:27;101279.84;;;21.75;100.00
42587;BME280;28216;53.362;-6.288;2023-05-07T09:29:52;101293.38;;;21.23;100.00
42587;BME280;28216;53.362;-6.288;2023-05-07T09:32:18;101289.09;;;21.16;100.00
42587;BME280;28216;53.362;-6.288;2023-05-07T09:34:43;101283.25;;;20.62;100.00
42587;BME280;28216;53.362;-6.288;2023-05-07T09:37:12;101284.25;;;20.68;100.00
42587;BME280;28216;53.362;-6.288;2023-05-07T09:39:45;101281.72;;;20.42;100.00
42587;BME280;28216;53.362;-6.288;2023-05-07T09:42:11;101286.50;;;20.07;100.00
42587;BME280;28216;53.362;-6.288;2023-05-07T09:44:38;101294.09;;;19.90;100.00
42587;BME280;28216;53.362;-6.288;2023-05-07T09:47:05;101298.22;;;19.53;100.00
42587;BME280;28216;53.362;-6.288;2023-05-07T09:49:34;101305.75;;;19.36;100.00
42587;BME280;28216;53.362;-6.288;2023-05-07T09:52:02;101300.97;;;18.98;100.00
42587;BME280;28216;53.362;-6.288;2023-05-07T09:54:29;101287.47;;;19.00;100.00
42587;BME280;28216;53.362;-6.288;2023-05-07T09:56:54;101303.00;;;18.90;100.00
42587;BME280;28216;53.362;-6.288;2023-05-07T09:59:21;101300.56;;;18.95;100.00
42587;BME280;28216;53.362;-6.288;2023-05-07T10:01:48;101291.34;;;18.84;100.00
42587;BME280;28216;53.362;-6.288;2023-05-07T10:04:14;101296.44;;;18.86;100.00
42587;BME280;28216;53.362;-6.288;2023-05-07T10:06:40;101296.47;;;18.99;100.00
42587;BME280;28216;53.362;-6.288;2023-05-07T10:09:06;101293.81;;;18.99;100.00
42587;BME280;28216;53.362;-6.288;2023-05-07T10:11:34;101280.75;;;19.24;100.00
42587;BME280;28216;53.362;-6.288;2023-05-07T10:14:01;101277.72;;;19.33;100.00
42587;BME280;28216;53.362;-6.288;2023-05-07T10:16:31;101269.09;;;19.12;100.00
42587;BME280;28216;53.362;-6.288;2023-05-07T10:18:58;101265.63;;;19.11;100.00
42587;BME280;28216;53.362;-6.288;2023-05-07T10:21:27;101266.03;;;19.28;100.00
42587;BME280;28216;53.362;-6.288;2023-05-07T10:24:06;101272.81;;;19.44;100.00
42587;BME280;28216;53.362;-6.288;2023-05-07T10:26:41;101265.47;;;19.52;100.00
42587;BME280;28216;53.362;-6.288;2023-05-07T10:29:12;101266.88;;;19.42;100.00
42587;BME280;28216;53.362;-6.288;2023-05-07T10:34:34;101273.22;;;19.47;100.00
42587;BME280;28216;53.362;-6.288;2023-05-07T10:37:01;101275.69;;;19.82;100.00
42587;BME280;28216;53.362;-6.288;2023-05-07T10:39:27;101273.63;;;19.90;100.00
42587;BME280;28216;53.362;-6.288;2023-05-07T10:41:53;101276.47;;;20.09;100.00
42587;BME280;28216;53.362;-6.288;2023-05-07T10:44:26;101275.66;;;20.08;100.00
42587;BME280;28216;53.362;-6.288;2023-05-07T10:52:31;101276.44;;;20.15;100.00
42587;BME280;28216;53.362;-6.288;2023-05-07T10:57:44;101273.81;;;19.89;100.00
42587;BME280;28216;53.362;-6.288;2023-05-07T11:05:26;101261.09;;;20.04;100.00
42587;BME280;28216;53.362;-6.288;2023-05-07T11:07:58;101257.72;;;20.35;100.00
42587;BME280;28216;53.362;-6.288;2023-05-07T11:13:16;101285.13;;;19.58;100.00
42587;BME280;28216;53.362;-6.288;2023-05-07T11:15:47;101274.81;;;19.09;100.00
42587;BME280;28216;53.362;-6.288;2023-05-07T11:18:15;101268.13;;;19.39;100.00
42587;BME280;28216;53.362;-6.288;2023-05-07T11:20:49;101276.72;;;19.67;100.00
42587;BME280;28216;53.362;-6.288;2023-05-07T11:28:27;101265.69;;;19.64;100.00
42587;BME280;28216;53.362;-6.288;2023-05-07T11:30:53;101269.53;;;19.81;100.00
42587;BME280;28216;53.362;-6.288;2023-05-07T11:33:19;101275.03;;;19.99;100.00
42587;BME280;28216;53.362;-6.288;2023-05-07T11:35:45;101272.19;;;19.94;100.00
42587;BME280;28216;53.362;-6.288;2023-05-07T11:38:12;101278.53;;;19.93;100.00
42587;BME280;28216;53.362;-6.288;2023-05-07T11:40:52;101287.78;;;19.71;100.00
42587;BME280;28216;53.362;-6.288;2023-05-07T11:43:18;101278.38;;;19.68;100.00
42587;BME280;28216;53.362;-6.288;2023-05-07T11:45:47;101283.47;;;19.44;100.00
42587;BME280;28216;53.362;-6.288;2023-05-07T11:48:14;101278.56;;;19.67;100.00
42587;BME280;28216;53.362;-6.288;2023-05-07T11:51:12;101280.38;;;19.86;100.00
42587;BME280;28216;53.362;-6.288;2023-05-07T11:53:42;101277.97;;;19.58;100.00
42587;BME280;28216;53.362;-6.288;2023-05-07T11:56:08;101286.09;;;19.90;100.00
42587;BME280;28216;53.362;-6.288;2023-05-07T11:58:34;101289.19;;;19.87;100.00
42587;BME280;28216;53.362;-6.288;2023-05-07T12:01:00;101287.91;;;20.03;100.00
42587;BME280;28216;53.362;-6.288;2023-05-07T12:03:25;101291.88;;;19.67;100.00
42587;BME280;28216;53.362;-6.288;2023-05-07T12:05:51;101287.38;;;19.61;100.00
42587;BME280;28216;53.362;-6.288;2023-05-07T12:08:17;101288.38;;;19.47;100.00
42587;BME280;28216;53.362;-6.288;2023-05-07T12:10:44;101295.69;;;19.18;100.00
42587;BME280;28216;53.362;-6.288;2023-05-07T12:13:19;101295.69;;;19.31;100.00
42587;BME280;28216;53.362;-6.288;2023-05-07T12:15:45;101293.69;;;19.47;100.00
42587;BME280;28216;53.362;-6.288;2023-05-07T12:18:12;101283.06;;;19.60;100.00
42587;BME280;28216;53.362;-6.288;2023-05-07T12:20:38;101276.72;;;19.67;100.00
42587;BME280;28216;53.362;-6.288;2023-05-07T12:23:05;101278.28;;;20.02;100.00
42587;BME280;28216;53.362;-6.288;2023-05-07T12:25:32;101264.81;;;19.96;100.00
42587;BME280;28216;53.362;-6.288;2023-05-07T12:27:57;101271.56;;;19.99;100.00
42587;BME280;28216;53.362;-6.288;2023-05-07T12:30:25;101277.69;;;19.99;100.00
42587;BME280;28216;53.362;-6.288;2023-05-07T12:32:54;101269.50;;;19.94;100.00
42587;BME280;28216;53.362;-6.288;2023-05-07T12:35:30;101267.03;;;20.06;100.00
42587;BME280;28216;53.362;-6.288;2023-05-07T12:37:59;101259.84;;;20.20;100.00
42587;BME280;28216;53.362;-6.288;2023-05-07T12:40:46;101261.88;;;20.24;100.00
42587;BME280;28216;53.362;-6.288;2023-05-07T12:43:20;101258.97;;;20.39;100.00
42587;BME280;28216;53.362;-6.288;2023-05-07T12:45:47;101258.09;;;20.52;100.00
42587;BME280;28216;53.362;-6.288;2023-05-07T12:48:13;101255.31;;;20.72;100.00
42587;BME280;28216;53.362;-6.288;2023-05-07T12:50:39;101246.03;;;20.87;100.00